sensor_id;sensor_type;location;lat;lon;timestamp;pressure;altitude;pressure_sealevel;temperature;humidity
32761;BME280;19126;47.472;7.850;2023-12-20T00:00:36;96891.31;;;0.60;89.45
32761;BME280;19126;47.472;7.850;2023-12-20T00:03:04;96878.16;;;0.63;89.28
32761;BME280;19126;47.472;7.850;2023-12-20T00:05:31;96868.56;;;0.65;88.77
32761;BME280;19126;47.472;7.850;2023-12-20T00:07:59;96864.94;;;0.67;88.67
32761;BME280;19126;47.472;7.850;2023-12-20T00:10:26;96868.25;;;0.69;87.78
32761;BME280;19126;47.472;7.850;2023-12-20T00:12:55;96867.31;;;0.70;87.74
32761;BME280;19126;47.472;7.850;2023-12-20T00:15:22;96860.28;;;0.72;87.44
32761;BME280;19126;47.472;7.850;2023-12-20T00:17:49;96861.00;;;0.75;86.48
32761;BME280;19126;47.472;7.850;2023-12-20T00:20:16;96862.66;;;0.76;85.63
32761;BME280;19126;47.472;7.850;2023-12-20T00:22:44;96858.91;;;0.80;84.53
32761;BME280;19126;47.472;7.850;2023-12-20T00:25:11;96856.94;;;0.83;83.94
32761;BME280;19126;47.472;7.850;2023-12-20T00:27:38;96841.91;;;0.88;83.16
32761;BME280;19126;47.472;7.850;2023-12-20T00:30:09;96844.28;;;0.92;82.46
32761;BME280;19126;47.472;7.850;2023-12-20T00:32:37;96841.81;;;0.90;81.87
32761;BME280;19126;47.472;7.850;2023-12-20T00:35:05;96844.78;;;0.97;81.21
32761;BME280;19126;47.472;7.850;2023-12-20T00:37:33;96837.75;;;0.99;80.87
32761;BME280;19126;47.472;7.850;2023-12-20T00:40:00;96837.44;;;1.04;79.47
32761;BME280;19126;47.472;7.850;2023-12-20T00:42:27;96833.56;;;1.09;79.29
32761;BME280;19126;47.472;7.850;2023-12-20T00:44:54;96838.94;;;1.19;79.48
32761;BME280;19126;47.472;7.850;2023-12-20T00:47:23;96846.69;;;1.19;80.00
32761;BME280;19126;47.472;7.850;2023-12-20T00:49:50;96845.41;;;1.25;80.70
32761;BME280;19126;47.472;7.850;2023-12-20T00:52:18;96846.25;;;1.25;81.96
32761;BME280;19126;47.472;7.850;2023-12-20T00:54:48;96837.41;;;1.28;82.75
32761;BME280;19126;47.472;7.850;2023-12-20T00:57:15;96851.19;;;1.28;83.44
32761;BME280;19126;47.472;7.850;2023-12-20T00:59:42;96845.09;;;1.29;84.58
32761;BME280;19126;47.472;7.850;2023-12-20T01:02:09;96844.97;;;1.31;85.51
32761;BME280;19126;47.472;7.850;2023-12-20T01:04:38;96850.75;;;1.35;85.94
32761;BME280;19126;47.472;7.850;2023-12-20T01:07:05;96852.31;;;1.37;87.16
32761;BME280;19126;47.472;7.850;2023-12-20T01:09:32;96852.19;;;1.39;87.65
32761;BME280;19126;47.472;7.850;2023-12-20T01:12:00;96850.44;;;1.39;87.89
32761;BME280;19126;47.472;7.850;2023-12-20T01:14:27;96848.66;;;1.40;88.15
32761;BME280;19126;47.472;7.850;2023-12-20T01:16:55;96849.59;;;1.39;89.21
32761;BME280;19126;47.472;7.850;2023-12-20T01:19:24;96856.34;;;1.41;88.48
32761;BME280;19126;47.472;7.850;2023-12-20T01:21:54;96858.03;;;1.54;88.83
32761;BME280;19126;47.472;7.850;2023-12-20T01:24:22;96856.97;;;1.56;88.84
32761;BME280;19126;47.472;7.850;2023-12-20T01:26:49;96849.19;;;1.56;89.91
32761;BME280;19126;47.472;7.850;2023-12-20T01:29:16;96851.19;;;1.53;90.65
32761;BME280;19126;47.472;7.850;2023-12-20T01:31:43;96841.66;;;1.53;91.79
32761;BME280;19126;47.472;7.850;2023-12-20T01:34:11;96850.25;;;1.54;92.70
32761;BME280;19126;47.472;7.850;2023-12-20T01:36:38;96850.50;;;1.51;93.47
32761;BME280;19126;47.472;7.850;2023-12-20T01:39:08;96843.75;;;1.48;93.66
32761;BME280;19126;47.472;7.850;2023-12-20T01:41:35;96844.69;;;1.47;93.83
32761;BME280;19126;47.472;7.850;2023-12-20T01:44:02;96846.34;;;1.48;94.23
32761;BME280;19126;47.472;7.850;2023-12-20T01:46:30;96848.94;;;1.48;94.48
32761;BME280;19126;47.472;7.850;2023-12-20T01:48:58;96856.69;;;1.48;93.85
32761;BME280;19126;47.472;7.850;2023-12-20T01:51:25;96853.22;;;1.60;94.55
32761;BME280;19126;47.472;7.850;2023-12-20T01:53:55;96853.22;;;1.60;95.03
32761;BME280;19126;47.472;7.850;2023-12-20T01:56:24;96851.69;;;1.58;94.98
32761;BME280;19126;47.472;7.850;2023-12-20T01:58:51;96850.97;;;1.56;95.77
32761;BME280;19126;47.472;7.850;2023-12-20T02:01:18;96858.03;;;1.54;95.08
32761;BME280;19126;47.472;7.850;2023-12-20T02:03:46;96857.22;;;1.65;95.50
32761;BME280;19126;47.472;7.850;2023-12-20T02:06:14;96855.72;;;1.62;95.21
32761;BME280;19126;47.472;7.850;2023-12-20T02:08:42;96862.63;;;1.61;95.18
32761;BME280;19126;47.472;7.850;2023-12-20T02:11:10;96864.63;;;1.58;94.59
32761;BME280;19126;47.472;7.850;2023-12-20T02:13:39;96870.75;;;1.57;93.53
32761;BME280;19126;47.472;7.850;2023-12-20T02:16:06;96868.16;;;1.57;93.21
32761;BME280;19126;47.472;7.850;2023-12-20T02:18:34;96864.06;;;1.66;91.44
32761;BME280;19126;47.472;7.850;2023-12-20T02:21:01;96865.94;;;1.64;89.16
32761;BME280;19126;47.472;7.850;2023-12-20T02:23:32;96873.13;;;1.60;86.79
32761;BME280;19126;47.472;7.850;2023-12-20T02:25:59;96863.47;;;1.62;85.21
32761;BME280;19126;47.472;7.850;2023-12-20T02:28:27;96852.06;;;1.65;83.55
32761;BME280;19126;47.472;7.850;2023-12-20T02:30:54;96849.25;;;1.68;80.86
32761;BME280;19126;47.472;7.850;2023-12-20T02:33:21;96850.19;;;1.67;79.22
32761;BME280;19126;47.472;7.850;2023-12-20T02:35:49;96846.88;;;1.65;77.94
32761;BME280;19126;47.472;7.850;2023-12-20T02:38:16;96850.41;;;1.64;75.58
32761;BME280;19126;47.472;7.850;2023-12-20T02:40:45;96846.16;;;1.63;73.96
32761;BME280;19126;47.472;7.850;2023-12-20T02:43:12;96847.00;;;1.63;72.02
32761;BME280;19126;47.472;7.850;2023-12-20T02:45:39;96834.16;;;1.61;70.64
32761;BME280;19126;47.472;7.850;2023-12-20T02:48:07;96836.97;;;1.58;69.51
32761;BME280;19126;47.472;7.850;2023-12-20T02:50:34;96838.63;;;1.59;67.38
32761;BME280;19126;47.472;7.850;2023-12-20T02:53:01;96824.72;;;1.60;65.29
32761;BME280;19126;47.472;7.850;2023-12-20T02:55:29;96829.91;;;1.60;63.88
32761;BME280;19126;47.472;7.850;2023-12-20T02:57:57;96835.22;;;1.59;62.97
32761;BME280;19126;47.472;7.850;2023-12-20T03:00:24;96825.00;;;1.69;60.95
32761;BME280;19126;47.472;7.850;2023-12-20T03:02:52;96822.66;;;1.77;60.22
32761;BME280;19126;47.472;7.850;2023-12-20T03:05:19;96824.53;;;1.75;59.45
32761;BME280;19126;47.472;7.850;2023-12-20T03:07:46;96830.06;;;1.70;57.62
32761;BME280;19126;47.472;7.850;2023-12-20T03:10:13;96829.94;;;1.72;57.11
32761;BME280;19126;47.472;7.850;2023-12-20T03:12:41;96830.88;;;1.71;55.72
32761;BME280;19126;47.472;7.850;2023-12-20T03:15:10;96837.13;;;1.68;54.96
32761;BME280;19126;47.472;7.850;2023-12-20T03:17:38;96847.59;;;1.67;54.00
32761;BME280;19126;47.472;7.850;2023-12-20T03:20:07;96835.47;;;1.67;52.36
32761;BME280;19126;47.472;7.850;2023-12-20T03:22:34;96833.94;;;1.65;50.89
32761;BME280;19126;47.472;7.850;2023-12-20T03:25:02;96831.34;;;1.65;49.45
32761;BME280;19126;47.472;7.850;2023-12-20T03:27:29;96834.75;;;1.65;48.83
32761;BME280;19126;47.472;7.850;2023-12-20T03:29:56;96836.50;;;1.65;47.49
32761;BME280;19126;47.472;7.850;2023-12-20T03:32:25;96829.59;;;1.65;46.66
32761;BME280;19126;47.472;7.850;2023-12-20T03:34:52;96842.75;;;1.62;45.39
32761;BME280;19126;47.472;7.850;2023-12-20T03:37:19;96837.59;;;1.62;44.90
32761;BME280;19126;47.472;7.850;2023-12-20T03:39:46;96829.59;;;1.65;43.65
32761;BME280;19126;47.472;7.850;2023-12-20T03:42:14;96837.13;;;1.68;42.45
32761;BME280;19126;47.472;7.850;2023-12-20T03:44:41;96845.72;;;1.69;41.24
32761;BME280;19126;47.472;7.850;2023-12-20T03:47:08;96835.34;;;1.69;40.96
32761;BME280;19126;47.472;7.850;2023-12-20T03:49:37;96833.38;;;1.72;39.83
32761;BME280;19126;47.472;7.850;2023-12-20T03:52:05;96840.78;;;1.77;39.22
32761;BME280;19126;47.472;7.850;2023-12-20T03:54:32;96840.00;;;1.88;37.91
32761;BME280;19126;47.472;7.850;2023-12-20T03:57:00;96844.25;;;1.89;37.44
32761;BME280;19126;47.472;7.850;2023-12-20T03:59:27;96847.88;;;1.86;36.72
32761;BME280;19126;47.472;7.850;2023-12-20T04:01:54;96842.59;;;1.88;35.78
32761;BME280;19126;47.472;7.850;2023-12-20T04:04:21;96848.72;;;1.87;35.94
32761;BME280;19126;47.472;7.850;2023-12-20T04:06:50;96852.97;;;1.88;35.20
32761;BME280;19126;47.472;7.850;2023-12-20T04:09:17;96858.94;;;1.88;34.05
32761;BME280;19126;47.472;7.850;2023-12-20T04:11:44;96866.84;;;1.87;34.03
32761;BME280;19126;47.472;7.850;2023-12-20T04:14:12;96867.66;;;1.87;32.71
32761;BME280;19126;47.472;7.850;2023-12-20T04:16:39;96869.00;;;1.93;32.51
32761;BME280;19126;47.472;7.850;2023-12-20T04:19:06;96870.75;;;1.93;31.50
32761;BME280;19126;47.472;7.850;2023-12-20T04:21:33;96871.59;;;1.93;31.56
32761;BME280;19126;47.472;7.850;2023-12-20T04:24:02;96869.56;;;1.97;31.20
32761;BME280;19126;47.472;7.850;2023-12-20T04:26:29;96873.00;;;1.97;31.22
32761;BME280;19126;47.472;7.850;2023-12-20T04:28:57;96873.25;;;2.05;30.68
32761;BME280;19126;47.472;7.850;2023-12-20T04:31:24;96877.59;;;2.05;30.21
32761;BME280;19126;47.472;7.850;2023-12-20T04:33:51;96878.44;;;2.05;29.99
32761;BME280;19126;47.472;7.850;2023-12-20T04:36:19;96883.63;;;2.05;29.06
32761;BME280;19126;47.472;7.850;2023-12-20T04:38:46;96877.84;;;2.13;28.66
32761;BME280;19126;47.472;7.850;2023-12-20T04:41:14;96882.31;;;2.11;28.55
32761;BME280;19126;47.472;7.850;2023-12-20T04:43:44;96880.66;;;2.10;27.89
32761;BME280;19126;47.472;7.850;2023-12-20T04:46:12;96869.63;;;2.19;27.50
32761;BME280;19126;47.472;7.850;2023-12-20T04:48:39;96869.84;;;2.16;27.81
32761;BME280;19126;47.472;7.850;2023-12-20T04:51:07;96867.63;;;2.12;26.60
32761;BME280;19126;47.472;7.850;2023-12-20T04:53:34;96877.03;;;2.13;27.19
32761;BME280;19126;47.472;7.850;2023-12-20T04:56:01;96887.28;;;2.26;26.35
32761;BME280;19126;47.472;7.850;2023-12-20T04:58:30;96885.19;;;2.31;26.45
32761;BME280;19126;47.472;7.850;2023-12-20T05:00:57;96894.84;;;2.29;26.04
32761;BME280;19126;47.472;7.850;2023-12-20T05:03:24;96897.09;;;2.33;26.24
32761;BME280;19126;47.472;7.850;2023-12-20T05:05:51;96886.72;;;2.33;25.49
32761;BME280;19126;47.472;7.850;2023-12-20T05:08:19;96886.28;;;2.40;25.40
32761;BME280;19126;47.472;7.850;2023-12-20T05:10:46;96898.06;;;2.44;25.68
32761;BME280;19126;47.472;7.850;2023-12-20T05:13:13;96899.34;;;2.49;25.02
32761;BME280;19126;47.472;7.850;2023-12-20T05:15:42;96892.75;;;2.57;25.42
32761;BME280;19126;47.472;7.850;2023-12-20T05:18:09;96906.78;;;2.54;25.31
32761;BME280;19126;47.472;7.850;2023-12-20T05:20:36;96903.34;;;2.54;24.53
32761;BME280;19126;47.472;7.850;2023-12-20T05:23:04;96903.25;;;2.55;24.94
32761;BME280;19126;47.472;7.850;2023-12-20T05:25:31;96900.28;;;2.60;23.59
32761;BME280;19126;47.472;7.850;2023-12-20T05:27:58;96897.97;;;2.68;24.41
32761;BME280;19126;47.472;7.850;2023-12-20T05:30:25;96893.59;;;2.69;23.56
32761;BME280;19126;47.472;7.850;2023-12-20T05:32:54;96911.03;;;2.67;24.58
32761;BME280;19126;47.472;7.850;2023-12-20T05:35:21;96910.22;;;2.66;24.33
32761;BME280;19126;47.472;7.850;2023-12-20T05:37:49;96915.41;;;2.66;23.81
32761;BME280;19126;47.472;7.850;2023-12-20T05:40:16;96917.06;;;2.67;23.64
32761;BME280;19126;47.472;7.850;2023-12-20T05:42:43;96898.22;;;2.65;24.57
32761;BME280;19126;47.472;7.850;2023-12-20T05:45:11;96891.59;;;2.72;23.83
32761;BME280;19126;47.472;7.850;2023-12-20T05:47:38;96913.06;;;2.74;24.23
32761;BME280;19126;47.472;7.850;2023-12-20T05:50:07;96924.16;;;2.76;23.81
32761;BME280;19126;47.472;7.850;2023-12-20T05:52:35;96922.84;;;2.82;23.63
32761;BME280;19126;47.472;7.850;2023-12-20T05:55:03;96925.09;;;2.87;24.16
32761;BME280;19126;47.472;7.850;2023-12-20T05:57:30;96918.59;;;2.92;23.82
32761;BME280;19126;47.472;7.850;2023-12-20T05:59:58;96936.75;;;2.92;23.65
32761;BME280;19126;47.472;7.850;2023-12-20T06:02:25;96933.69;;;2.99;23.41
32761;BME280;19126;47.472;7.850;2023-12-20T06:04:52;96939.34;;;3.04;24.04
32761;BME280;19126;47.472;7.850;2023-12-20T06:07:22;96936.88;;;3.14;23.85
32761;BME280;19126;47.472;7.850;2023-12-20T06:09:49;96941.22;;;3.13;24.43
32761;BME280;19126;47.472;7.850;2023-12-20T06:12:17;96942.63;;;3.17;23.95
32761;BME280;19126;47.472;7.850;2023-12-20T06:14:44;96932.38;;;3.16;24.62
32761;BME280;19126;47.472;7.850;2023-12-20T06:17:11;96928.25;;;3.13;24.27
32761;BME280;19126;47.472;7.850;2023-12-20T06:19:38;96929.78;;;3.16;23.66
32761;BME280;19126;47.472;7.850;2023-12-20T06:22:05;96936.00;;;3.25;24.34
32761;BME280;19126;47.472;7.850;2023-12-20T06:24:34;96934.72;;;3.30;23.53
32761;BME280;19126;47.472;7.850;2023-12-20T06:27:02;96933.34;;;3.59;23.84
32761;BME280;19126;47.472;7.850;2023-12-20T06:29:29;96933.88;;;3.85;24.78
32761;BME280;19126;47.472;7.850;2023-12-20T06:31:57;96945.75;;;3.99;24.43
32761;BME280;19126;47.472;7.850;2023-12-20T06:34:24;96948.56;;;3.96;24.12
32761;BME280;19126;47.472;7.850;2023-12-20T06:36:51;96935.81;;;4.04;24.86
32761;BME280;19126;47.472;7.850;2023-12-20T06:39:18;96948.41;;;4.09;24.66
32761;BME280;19126;47.472;7.850;2023-12-20T06:41:47;96950.00;;;4.21;24.34
32761;BME280;19126;47.472;7.850;2023-12-20T06:44:14;96949.91;;;4.23;24.78
32761;BME280;19126;47.472;7.850;2023-12-20T06:46:41;96954.19;;;4.13;24.16
32761;BME280;19126;47.472;7.850;2023-12-20T06:49:08;96951.59;;;4.13;24.76
32761;BME280;19126;47.472;7.850;2023-12-20T06:51:36;96950.06;;;4.10;24.92
32761;BME280;19126;47.472;7.850;2023-12-20T06:54:04;96957.41;;;4.05;24.88
32761;BME280;19126;47.472;7.850;2023-12-20T06:56:31;96956.09;;;4.10;24.22
32761;BME280;19126;47.472;7.850;2023-12-20T06:59:00;96955.50;;;4.07;24.24
32761;BME280;19126;47.472;7.850;2023-12-20T07:01:27;96961.25;;;4.22;24.71
32761;BME280;19126;47.472;7.850;2023-12-20T07:03:55;96968.09;;;4.23;24.95
32761;BME280;19126;47.472;7.850;2023-12-20T07:06:22;96970.09;;;4.19;24.44
32761;BME280;19126;47.472;7.850;2023-12-20T07:08:52;96964.81;;;4.21;24.62
32761;BME280;19126;47.472;7.850;2023-12-20T07:11:19;96967.91;;;4.15;24.92
32761;BME280;19126;47.472;7.850;2023-12-20T07:13:46;96969.41;;;4.17;24.69
32761;BME280;19126;47.472;7.850;2023-12-20T07:16:16;96974.50;;;4.19;23.99
32761;BME280;19126;47.472;7.850;2023-12-20T07:18:43;96978.88;;;4.18;24.29
32761;BME280;19126;47.472;7.850;2023-12-20T07:21:11;96974.88;;;4.14;24.63
32761;BME280;19126;47.472;7.850;2023-12-20T07:23:38;96987.38;;;4.20;24.44
32761;BME280;19126;47.472;7.850;2023-12-20T07:26:06;96984.75;;;4.20;25.00
32761;BME280;19126;47.472;7.850;2023-12-20T07:28:33;96996.44;;;4.26;24.46
32761;BME280;19126;47.472;7.850;2023-12-20T07:31:01;96998.72;;;4.19;24.94
32761;BME280;19126;47.472;7.850;2023-12-20T07:33:29;96998.34;;;4.24;25.04
32761;BME280;19126;47.472;7.850;2023-12-20T07:35:57;97002.16;;;4.20;24.48
32761;BME280;19126;47.472;7.850;2023-12-20T07:38:24;97003.91;;;4.19;25.01
32761;BME280;19126;47.472;7.850;2023-12-20T07:40:51;96997.75;;;4.20;24.31
32761;BME280;19126;47.472;7.850;2023-12-20T07:43:19;97001.06;;;4.22;25.02
32761;BME280;19126;47.472;7.850;2023-12-20T07:45:46;96999.63;;;4.30;24.61
32761;BME280;19126;47.472;7.850;2023-12-20T07:48:13;96998.91;;;4.28;25.30
32761;BME280;19126;47.472;7.850;2023-12-20T07:50:42;97010.50;;;4.23;25.01
32761;BME280;19126;47.472;7.850;2023-12-20T07:53:09;97014.16;;;4.32;24.28
32761;BME280;19126;47.472;7.850;2023-12-20T07:55:36;97017.22;;;4.37;24.28
32761;BME280;19126;47.472;7.850;2023-12-20T07:58:04;97022.47;;;4.47;24.96
32761;BME280;19126;47.472;7.850;2023-12-20T08:00:31;97027.63;;;4.37;24.55
32761;BME280;19126;47.472;7.850;2023-12-20T08:02:58;97032.63;;;4.50;25.13
32761;BME280;19126;47.472;7.850;2023-12-20T08:05:29;97033.56;;;4.49;25.02
32761;BME280;19126;47.472;7.850;2023-12-20T08:07:57;97034.22;;;4.42;24.83
32761;BME280;19126;47.472;7.850;2023-12-20T08:10:25;97038.72;;;4.39;24.64
32761;BME280;19126;47.472;7.850;2023-12-20T08:12:55;97035.38;;;4.49;24.25
32761;BME280;19126;47.472;7.850;2023-12-20T08:15:22;97043.63;;;4.54;24.11
32761;BME280;19126;47.472;7.850;2023-12-20T08:17:50;97038.28;;;4.55;24.60
32761;BME280;19126;47.472;7.850;2023-12-20T08:20:17;97041.56;;;4.58;24.58
32761;BME280;19126;47.472;7.850;2023-12-20T08:22:45;97043.22;;;4.59;24.61
32761;BME280;19126;47.472;7.850;2023-12-20T08:25:13;97054.09;;;4.64;24.64
32761;BME280;19126;47.472;7.850;2023-12-20T08:27:41;97048.50;;;4.68;24.30
32761;BME280;19126;47.472;7.850;2023-12-20T08:30:10;97047.13;;;4.64;25.03
32761;BME280;19126;47.472;7.850;2023-12-20T08:32:41;97039.41;;;4.63;24.78
32761;BME280;19126;47.472;7.850;2023-12-20T08:35:09;97032.06;;;4.68;24.39
32761;BME280;19126;47.472;7.850;2023-12-20T08:37:36;97038.41;;;4.75;24.95
32761;BME280;19126;47.472;7.850;2023-12-20T08:40:05;97040.00;;;4.88;24.40
32761;BME280;19126;47.472;7.850;2023-12-20T08:42:34;97048.31;;;4.81;24.86
32761;BME280;19126;47.472;7.850;2023-12-20T08:45:01;97051.34;;;4.87;24.94
32761;BME280;19126;47.472;7.850;2023-12-20T08:47:30;97051.53;;;4.95;24.24
32761;BME280;19126;47.472;7.850;2023-12-20T08:49:57;97049.59;;;4.87;24.86
32761;BME280;19126;47.472;7.850;2023-12-20T08:52:26;97050.53;;;4.86;24.47
32761;BME280;19126;47.472;7.850;2023-12-20T08:54:53;97050.03;;;4.92;25.23
32761;BME280;19126;47.472;7.850;2023-12-20T08:57:21;97058.22;;;4.88;24.56
32761;BME280;19126;47.472;7.850;2023-12-20T08:59:51;97052.81;;;5.01;24.97
32761;BME280;19126;47.472;7.850;2023-12-20T09:02:18;97056.16;;;5.12;25.15
32761;BME280;19126;47.472;7.850;2023-12-20T09:04:45;97055.59;;;5.09;25.53
32761;BME280;19126;47.472;7.850;2023-12-20T09:07:22;97069.50;;;4.98;26.19
32761;BME280;19126;47.472;7.850;2023-12-20T09:09:50;97068.03;;;5.05;26.32
32761;BME280;19126;47.472;7.850;2023-12-20T09:12:18;97057.63;;;5.05;27.28
32761;BME280;19126;47.472;7.850;2023-12-20T09:14:46;97064.41;;;5.18;27.59
32761;BME280;19126;47.472;7.850;2023-12-20T09:17:15;97053.44;;;5.14;29.23
32761;BME280;19126;47.472;7.850;2023-12-20T09:19:43;97070.13;;;5.11;30.38
32761;BME280;19126;47.472;7.850;2023-12-20T09:22:11;97060.31;;;5.15;32.16
32761;BME280;19126;47.472;7.850;2023-12-20T09:24:38;97067.94;;;5.07;34.29
32761;BME280;19126;47.472;7.850;2023-12-20T09:27:06;97067.94;;;5.07;36.05
32761;BME280;19126;47.472;7.850;2023-12-20T09:29:33;97076.81;;;5.04;38.09
32761;BME280;19126;47.472;7.850;2023-12-20T09:32:01;97073.00;;;5.08;39.96
32761;BME280;19126;47.472;7.850;2023-12-20T09:34:30;97079.41;;;5.04;42.96
32761;BME280;19126;47.472;7.850;2023-12-20T09:36:57;97084.25;;;5.09;44.34
32761;BME280;19126;47.472;7.850;2023-12-20T09:39:24;97086.28;;;5.05;47.22
32761;BME280;19126;47.472;7.850;2023-12-20T09:42:00;97093.97;;;5.07;50.78
32761;BME280;19126;47.472;7.850;2023-12-20T09:44:27;97085.66;;;5.13;53.99
32761;BME280;19126;47.472;7.850;2023-12-20T09:46:56;97086.72;;;5.10;58.29
32761;BME280;19126;47.472;7.850;2023-12-20T09:49:23;97093.13;;;5.06;62.46
32761;BME280;19126;47.472;7.850;2023-12-20T09:51:54;97095.28;;;5.01;66.08
32761;BME280;19126;47.472;7.850;2023-12-20T09:54:23;97091.28;;;4.97;69.81
32761;BME280;19126;47.472;7.850;2023-12-20T09:56:50;97099.44;;;5.04;72.73
32761;BME280;19126;47.472;7.850;2023-12-20T09:59:18;97101.16;;;4.93;75.10
32761;BME280;19126;47.472;7.850;2023-12-20T10:01:45;97105.41;;;4.94;78.67
32761;BME280;19126;47.472;7.850;2023-12-20T10:04:13;97105.41;;;4.94;80.94
32761;BME280;19126;47.472;7.850;2023-12-20T10:06:40;97103.69;;;5.05;85.58
32761;BME280;19126;47.472;7.850;2023-12-20T10:09:11;97102.09;;;5.13;89.86
32761;BME280;19126;47.472;7.850;2023-12-20T10:11:39;97097.03;;;5.12;95.00
32761;BME280;19126;47.472;7.850;2023-12-20T10:14:07;97093.72;;;5.10;97.47
32761;BME280;19126;47.472;7.850;2023-12-20T10:16:35;97085.75;;;5.11;99.61
32761;BME280;19126;47.472;7.850;2023-12-20T10:19:02;97085.91;;;5.10;100.00
32761;BME280;19126;47.472;7.850;2023-12-20T10:21:30;97084.25;;;5.09;100.00
32761;BME280;19126;47.472;7.850;2023-12-20T10:24:01;97078.47;;;5.05;100.00
32761;BME280;19126;47.472;7.850;2023-12-20T10:26:29;97082.53;;;4.98;100.00
32761;BME280;19126;47.472;7.850;2023-12-20T10:29:00;97086.22;;;4.95;100.00
32761;BME280;19126;47.472;7.850;2023-12-20T10:31:30;97084.69;;;4.93;100.00
32761;BME280;19126;47.472;7.850;2023-12-20T10:33:59;97081.88;;;4.84;100.00
32761;BME280;19126;47.472;7.850;2023-12-20T10:36:28;97076.81;;;4.83;100.00
32761;BME280;19126;47.472;7.850;2023-12-20T10:38:57;97083.94;;;4.81;100.00
32761;BME280;19126;47.472;7.850;2023-12-20T10:41:29;97079.50;;;4.72;100.00
32761;BME280;19126;47.472;7.850;2023-12-20T10:44:00;97067.94;;;4.64;100.00
32761;BME280;19126;47.472;7.850;2023-12-20T10:46:29;97076.69;;;4.63;100.00
32761;BME280;19126;47.472;7.850;2023-12-20T10:48:58;97059.66;;;4.80;100.00
32761;BME280;19126;47.472;7.850;2023-12-20T10:51:26;97065.31;;;4.86;100.00
32761;BME280;19126;47.472;7.850;2023-12-20T10:53:56;97059.25;;;4.96;100.00
32761;BME280;19126;47.472;7.850;2023-12-20T10:56:23;97061.44;;;5.01;100.00
32761;BME280;19126;47.472;7.850;2023-12-20T10:58:52;97051.97;;;5.21;100.00
32761;BME280;19126;47.472;7.850;2023-12-20T11:01:21;97049.91;;;5.25;100.00
32761;BME280;19126;47.472;7.850;2023-12-20T11:03:52;97046.06;;;5.19;100.00
32761;BME280;19126;47.472;7.850;2023-12-20T11:06:36;97049.31;;;5.11;100.00
32761;BME280;19126;47.472;7.850;2023-12-20T11:09:14;97048.56;;;4.99;100.00
32761;BME280;19126;47.472;7.850;2023-12-20T11:12:01;97054.59;;;5.00;100.00
32761;BME280;19126;47.472;7.850;2023-12-20T11:14:39;97044.88;;;5.02;100.00
32761;BME280;19126;47.472;7.850;2023-12-20T11:17:09;97058.59;;;5.04;100.00
32761;BME280;19126;47.472;7.850;2023-12-20T11:20:03;97048.88;;;5.06;100.00
32761;BME280;19126;47.472;7.850;2023-12-20T11:22:31;97051.53;;;5.16;100.00
32761;BME280;19126;47.472;7.850;2023-12-20T11:25:04;97061.88;;;5.06;100.00
32761;BME280;19126;47.472;7.850;2023-12-20T11:27:34;97052.84;;;5.10;100.00
32761;BME280;19126;47.472;7.850;2023-12-20T11:30:05;97055.09;;;5.15;100.00
32761;BME280;19126;47.472;7.850;2023-12-20T11:32:35;97053.28;;;5.37;100.00
32761;BME280;19126;47.472;7.850;2023-12-20T11:35:18;97064.19;;;5.62;100.00
32761;BME280;19126;47.472;7.850;2023-12-20T11:37:46;97060.81;;;5.71;100.00
32761;BME280;19126;47.472;7.850;2023-12-20T11:40:16;97068.50;;;5.72;100.00
32761;BME280;19126;47.472;7.850;2023-12-20T11:42:45;97060.84;;;5.81;100.00
32761;BME280;19126;47.472;7.850;2023-12-20T11:45:18;97070.00;;;5.75;100.00
32761;BME280;19126;47.472;7.850;2023-12-20T11:47:48;97057.00;;;5.85;100.00
32761;BME280;19126;47.472;7.850;2023-12-20T11:50:17;97050.50;;;6.00;100.00
32761;BME280;19126;47.472;7.850;2023-12-20T11:52:44;97059.47;;;5.86;100.00
32761;BME280;19126;47.472;7.850;2023-12-20T11:55:12;97057.97;;;5.84;100.00
32761;BME280;19126;47.472;7.850;2023-12-20T11:57:40;97063.72;;;5.78;100.00
32761;BME280;19126;47.472;7.850;2023-12-20T12:00:08;97062.44;;;5.72;100.00
32761;BME280;19126;47.472;7.850;2023-12-20T12:02:37;97052.91;;;5.92;100.00
32761;BME280;19126;47.472;7.850;2023-12-20T12:05:07;97038.28;;;6.11;100.00
32761;BME280;19126;47.472;7.850;2023-12-20T12:07:35;97045.56;;;6.27;100.00
32761;BME280;19126;47.472;7.850;2023-12-20T12:10:02;97048.16;;;6.27;100.00
32761;BME280;19126;47.472;7.850;2023-12-20T12:12:30;97035.81;;;6.29;100.00
32761;BME280;19126;47.472;7.850;2023-12-20T12:14:58;97043.91;;;6.26;100.00
32761;BME280;19126;47.472;7.850;2023-12-20T12:17:26;97047.34;;;6.36;100.00
32761;BME280;19126;47.472;7.850;2023-12-20T12:20:03;97047.63;;;6.33;100.00
32761;BME280;19126;47.472;7.850;2023-12-20T12:22:31;97057.78;;;6.26;100.00
32761;BME280;19126;47.472;7.850;2023-12-20T12:25:08;97055.84;;;6.19;100.00
32761;BME280;19126;47.472;7.850;2023-12-20T12:27:39;97052.13;;;6.11;100.00
32761;BME280;19126;47.472;7.850;2023-12-20T12:30:08;97056.34;;;5.93;100.00
32761;BME280;19126;47.472;7.850;2023-12-20T12:32:37;97057.38;;;5.70;100.00
32761;BME280;19126;47.472;7.850;2023-12-20T12:35:09;97060.88;;;5.50;100.00
32761;BME280;19126;47.472;7.850;2023-12-20T12:37:39;97059.59;;;5.34;100.00
32761;BME280;19126;47.472;7.850;2023-12-20T12:40:09;97059.09;;;5.19;100.00
32761;BME280;19126;47.472;7.850;2023-12-20T12:42:37;97069.00;;;5.04;100.00
32761;BME280;19126;47.472;7.850;2023-12-20T12:45:06;97065.66;;;4.92;100.00
32761;BME280;19126;47.472;7.850;2023-12-20T12:47:34;97072.19;;;4.87;100.00
32761;BME280;19126;47.472;7.850;2023-12-20T12:50:02;97074.59;;;4.78;100.00
32761;BME280;19126;47.472;7.850;2023-12-20T12:52:31;97078.53;;;4.73;100.00
32761;BME280;19126;47.472;7.850;2023-12-20T12:54:59;97074.59;;;4.57;100.00
32761;BME280;19126;47.472;7.850;2023-12-20T12:57:26;97081.00;;;4.53;100.00
32761;BME280;19126;47.472;7.850;2023-12-20T12:59:53;97090.59;;;4.41;100.00
32761;BME280;19126;47.472;7.850;2023-12-20T13:02:21;97086.50;;;4.38;100.00
32761;BME280;19126;47.472;7.850;2023-12-20T13:04:48;97082.47;;;4.34;100.00
32761;BME280;19126;47.472;7.850;2023-12-20T13:07:15;97082.59;;;4.33;100.00
32761;BME280;19126;47.472;7.850;2023-12-20T13:09:44;97088.75;;;4.32;100.00
32761;BME280;19126;47.472;7.850;2023-12-20T13:12:11;97088.63;;;4.33;100.00